createdAt,value
2018-06-25T00:00:41.109Z,18.14
2018-06-25T00:05:35.504Z,18.14
2018-06-25T00:10:30.385Z,17.98
2018-06-25T00:15:25.022Z,18.03
2018-06-25T00:20:19.758Z,17.95
2018-06-25T00:25:14.418Z,18.20
2018-06-25T00:30:09.159Z,18.20
2018-06-25T00:35:03.872Z,17.84
2018-06-25T00:39:58.562Z,17.90
2018-06-25T00:44:53.212Z,18.05
2018-06-25T00:49:47.891Z,17.98
2018-06-25T00:54:42.532Z,18.00
2018-06-25T00:59:49.134Z,17.90
2018-06-25T01:04:43.765Z,17.90
2018-06-25T01:09:38.370Z,18.10
2018-06-25T01:14:33.011Z,18.13
2018-06-25T01:19:27.720Z,17.76
2018-06-25T01:24:22.335Z,17.13
2018-06-25T01:29:17.003Z,17.10
2018-06-25T01:34:12.561Z,17.11
2018-06-25T01:39:09.979Z,17.01
2018-06-25T01:44:05.014Z,17.00
2018-06-25T01:48:59.712Z,17.07
2018-06-25T01:53:54.010Z,16.92
2018-06-25T01:58:48.640Z,16.96
2018-06-25T02:03:43.330Z,17.06
2018-06-25T02:08:37.975Z,17.26
2018-06-25T02:13:32.662Z,17.20
2018-06-25T02:18:27.293Z,17.20
2018-06-25T02:23:21.983Z,16.99
2018-06-25T02:28:17.494Z,16.78
2018-06-25T02:33:12.169Z,16.88
2018-06-25T02:38:07.044Z,16.99
2018-06-25T02:43:01.692Z,17.03
2018-06-25T02:47:56.327Z,17.01
2018-06-25T02:52:50.959Z,16.98
2018-06-25T02:57:45.644Z,17.03
2018-06-25T03:02:40.379Z,17.26
2018-06-25T03:07:34.963Z,17.25
2018-06-25T03:12:29.790Z,17.33
2018-06-25T03:17:24.423Z,17.19
2018-06-25T03:22:19.109Z,16.94
2018-06-25T03:27:13.778Z,17.09
2018-06-25T03:32:08.524Z,17.08
2018-06-25T03:37:03.704Z,17.11
2018-06-25T03:41:58.461Z,17.40
2018-06-25T03:46:53.218Z,17.33
2018-06-25T03:51:49.134Z,17.09
2018-06-25T03:56:43.761Z,17.12
2018-06-25T04:01:38.483Z,17.06
2018-06-25T04:06:34.042Z,17.03
2018-06-25T04:11:28.711Z,17.09
2018-06-25T04:16:23.382Z,17.05
2018-06-25T04:21:18.083Z,17.13
2018-06-25T04:26:12.742Z,17.38
2018-06-25T04:31:07.653Z,17.38
2018-06-25T04:36:02.280Z,17.32
2018-06-25T04:40:57.940Z,17.12
2018-06-25T04:45:52.594Z,17.05
2018-06-25T04:50:47.218Z,16.75
2018-06-25T04:55:41.911Z,16.71
2018-06-25T05:00:36.534Z,16.76
2018-06-25T05:05:31.245Z,16.75
2018-06-25T05:10:25.870Z,16.67
2018-06-25T05:15:20.599Z,17.16
2018-06-25T05:20:15.310Z,17.48
2018-06-25T05:25:09.935Z,18.10
2018-06-25T05:30:04.731Z,17.94
2018-06-25T05:34:59.399Z,17.88
2018-06-25T05:39:54.198Z,17.72
2018-06-25T05:44:49.165Z,17.65
2018-06-25T05:49:43.814Z,17.64
2018-06-25T05:54:38.534Z,17.23
2018-06-25T05:59:33.314Z,17.12
2018-06-25T06:04:28.082Z,17.58
2018-06-25T06:09:22.723Z,17.59
2018-06-25T06:14:17.428Z,17.66
2018-06-25T06:19:12.136Z,17.38
2018-06-25T06:24:06.822Z,17.33
2018-06-25T06:29:01.455Z,17.39
2018-06-25T06:33:56.130Z,17.17
2018-06-25T06:38:50.758Z,17.00
2018-06-25T06:43:45.407Z,16.94
2018-06-25T06:48:40.056Z,16.95
2018-06-25T06:53:34.763Z,16.98
2018-06-25T06:58:29.480Z,17.17
2018-06-25T07:03:24.131Z,17.47
2018-06-25T07:08:18.826Z,18.00
2018-06-25T07:13:13.532Z,18.82
2018-06-25T07:18:08.490Z,18.80
2018-06-25T07:23:03.600Z,18.74
2018-06-25T07:27:58.219Z,19.27
2018-06-25T07:32:53.286Z,19.81
2018-06-25T07:37:48.024Z,19.89
2018-06-25T07:42:42.681Z,20.22
2018-06-25T07:47:37.348Z,20.49
2018-06-25T07:52:31.996Z,21.18
2018-06-25T07:57:26.747Z,21.49
2018-06-25T08:02:21.500Z,21.81
2018-06-25T08:07:16.414Z,22.40
2018-06-25T08:12:11.134Z,23.57
2018-06-25T08:17:05.872Z,24.04
2018-06-25T08:22:00.531Z,24.41
2018-06-25T08:26:55.294Z,22.74
2018-06-25T08:31:49.975Z,21.25
2018-06-25T08:36:44.602Z,21.47
2018-06-25T08:41:39.720Z,22.24
2018-06-25T08:46:34.395Z,21.24
2018-06-25T08:51:29.178Z,20.61
2018-06-25T08:56:23.842Z,20.06
2018-06-25T09:01:19.020Z,20.20
2018-06-25T09:06:13.625Z,20.61
2018-06-25T09:11:08.264Z,20.69
2018-06-25T09:16:03.514Z,21.19
2018-06-25T09:20:58.082Z,21.25
2018-06-25T09:25:52.762Z,21.84
2018-06-25T09:30:47.450Z,21.51
2018-06-25T09:35:42.370Z,21.35
2018-06-25T09:40:36.950Z,21.68
2018-06-25T09:45:31.564Z,21.95
2018-06-25T09:50:26.118Z,22.10
2018-06-25T09:55:20.776Z,21.76
2018-06-25T10:00:19.774Z,21.85
2018-06-25T10:05:14.085Z,22.24
2018-06-25T10:10:08.419Z,22.22
2018-06-25T10:15:03.245Z,22.45
2018-06-25T10:19:57.894Z,23.13
2018-06-25T10:24:52.647Z,23.66
2018-06-25T10:29:47.323Z,24.03
2018-06-25T10:34:42.052Z,24.94
2018-06-25T10:39:36.342Z,24.75
2018-06-25T10:44:30.641Z,23.60
2018-06-25T10:49:25.011Z,23.77
2018-06-25T10:54:19.726Z,22.65
2018-06-25T10:59:14.664Z,23.35
2018-06-25T11:04:09.550Z,24.75
2018-06-25T11:09:05.254Z,25.97
2018-06-25T11:13:59.991Z,25.89
2018-06-25T11:18:54.639Z,24.46
2018-06-25T11:23:49.271Z,23.36
2018-06-25T11:28:44.228Z,23.05
2018-06-25T11:33:39.018Z,23.46
2018-06-25T11:38:33.743Z,24.28
2018-06-25T11:43:28.487Z,23.48
2018-06-25T11:48:23.329Z,22.35
2018-06-25T11:53:18.095Z,23.23
2018-06-25T11:58:12.788Z,23.70
2018-06-25T12:03:07.813Z,24.45
2018-06-25T12:08:02.586Z,24.30
2018-06-25T12:12:57.421Z,24.85
2018-06-25T12:17:52.062Z,25.36
2018-06-25T12:22:46.706Z,25.72
2018-06-25T12:27:41.522Z,26.04
2018-06-25T12:32:36.077Z,25.18
2018-06-25T12:37:30.742Z,24.33
2018-06-25T12:42:25.575Z,24.26
2018-06-25T12:47:20.236Z,23.95
2018-06-25T12:52:14.898Z,24.21
2018-06-25T12:57:09.555Z,24.43
2018-06-25T13:02:04.353Z,24.27
2018-06-25T13:06:59.373Z,24.72
2018-06-25T13:11:54.047Z,24.83
2018-06-25T13:16:48.626Z,24.36
2018-06-25T13:21:43.339Z,23.55
2018-06-25T13:26:37.940Z,23.60
2018-06-25T13:31:32.629Z,24.23
2018-06-25T13:36:27.378Z,24.12
2018-06-25T13:41:22.075Z,23.96
2018-06-25T13:46:17.524Z,23.66
2018-06-25T13:51:12.250Z,23.81
2018-06-25T13:56:07.067Z,24.14
2018-06-25T14:01:01.764Z,23.95
2018-06-25T14:05:56.636Z,23.62
2018-06-25T14:10:52.110Z,23.47
2018-06-25T14:15:46.750Z,23.49
2018-06-25T14:20:41.466Z,24.17
2018-06-25T14:25:41.274Z,24.20
2018-06-25T14:30:40.694Z,23.83
2018-06-25T14:35:35.262Z,23.83
2018-06-25T14:40:29.913Z,23.55
2018-06-25T14:45:24.529Z,23.70
2018-06-25T14:50:19.190Z,23.63
2018-06-25T14:55:13.767Z,23.46
2018-06-25T15:00:08.456Z,23.68
2018-06-25T15:05:03.102Z,23.56
2018-06-25T15:09:57.766Z,23.41
2018-06-25T15:14:52.410Z,23.47
2018-06-25T15:19:47.015Z,23.58
2018-06-25T15:24:41.647Z,23.64
2018-06-25T15:29:36.227Z,23.60
2018-06-25T15:34:30.835Z,23.84
2018-06-25T15:39:25.503Z,23.64
2018-06-25T15:44:20.378Z,23.76
2018-06-25T15:49:15.014Z,23.42
2018-06-25T15:54:09.624Z,23.39
2018-06-25T15:59:04.326Z,23.08
2018-06-25T16:03:58.978Z,22.63
2018-06-25T16:08:53.621Z,22.97
2018-06-25T16:13:48.201Z,23.44
2018-06-25T16:18:42.805Z,23.61
2018-06-25T16:23:37.420Z,23.72
2018-06-25T16:28:32.180Z,23.75
2018-06-25T16:33:26.847Z,23.41
2018-06-25T16:38:21.669Z,23.34
2018-06-25T16:43:16.311Z,23.26
2018-06-25T16:48:10.915Z,22.98
2018-06-25T16:53:05.701Z,22.92
2018-06-25T16:58:00.283Z,22.91
2018-06-25T17:02:54.873Z,23.12
2018-06-25T17:07:49.534Z,22.97
2018-06-25T17:12:44.184Z,23.15
2018-06-25T17:17:38.783Z,22.83
2018-06-25T17:22:33.388Z,22.73
2018-06-25T17:27:28.018Z,22.74
2018-06-25T17:32:22.649Z,22.53
2018-06-25T17:37:17.777Z,22.69
2018-06-25T17:42:12.407Z,22.67
2018-06-25T17:47:07.161Z,22.59
2018-06-25T17:52:01.765Z,22.55
2018-06-25T17:56:56.382Z,22.41
2018-06-25T18:01:52.790Z,22.30
2018-06-25T18:06:47.431Z,22.33
2018-06-25T18:11:42.077Z,22.25
2018-06-25T18:16:36.634Z,21.93
2018-06-25T18:21:31.374Z,21.96
2018-06-25T18:26:26.070Z,22.07
2018-06-25T18:31:20.803Z,21.95
2018-06-25T18:36:15.438Z,21.61
2018-06-25T18:41:10.112Z,21.43
2018-06-25T18:46:04.847Z,21.28
2018-06-25T18:50:59.479Z,21.13
2018-06-25T18:55:54.097Z,20.95
2018-06-25T19:00:48.833Z,20.73
2018-06-25T19:05:43.467Z,20.71
2018-06-25T19:10:38.237Z,20.61
2018-06-25T19:15:34.774Z,20.54
2018-06-25T19:20:30.311Z,20.20
2018-06-25T19:25:24.977Z,20.05
2018-06-25T19:30:19.704Z,20.27
2018-06-25T19:35:14.503Z,20.20
2018-06-25T19:40:09.207Z,20.22
2018-06-25T19:45:03.899Z,20.06
2018-06-25T19:49:58.655Z,20.08
2018-06-25T19:54:53.298Z,20.12
2018-06-25T19:59:47.980Z,19.71
2018-06-25T20:04:42.714Z,19.66
2018-06-25T20:09:37.390Z,19.55
2018-06-25T20:14:32.073Z,19.48
2018-06-25T20:19:26.720Z,19.49
2018-06-25T20:24:21.329Z,19.31
2018-06-25T20:29:16.139Z,19.22
2018-06-25T20:34:10.763Z,19.00
2018-06-25T20:39:08.655Z,18.94
2018-06-25T20:44:03.570Z,18.78
2018-06-25T20:48:58.234Z,18.48
2018-06-25T20:53:52.934Z,18.41
2018-06-25T20:58:47.598Z,18.40
2018-06-25T21:03:42.490Z,18.46
2018-06-25T21:08:37.243Z,18.23
2018-06-25T21:13:31.904Z,18.01
2018-06-25T21:18:26.667Z,18.08
2018-06-25T21:23:21.322Z,17.97
2018-06-25T21:28:16.005Z,17.82
2018-06-25T21:33:10.764Z,17.94
2018-06-25T21:38:05.451Z,17.90
2018-06-25T21:43:00.175Z,17.82
2018-06-25T21:47:54.889Z,17.71
2018-06-25T21:52:49.561Z,17.74
2018-06-25T21:57:44.267Z,17.73
2018-06-25T22:02:39.054Z,17.76
2018-06-25T22:07:33.716Z,17.56
2018-06-25T22:12:28.403Z,17.26
2018-06-25T22:17:23.108Z,17.12
2018-06-25T22:22:17.821Z,17.03
2018-06-25T22:27:12.447Z,17.15
2018-06-25T22:32:07.974Z,16.98
2018-06-25T22:37:02.558Z,17.02
2018-06-25T22:41:57.154Z,16.91
2018-06-25T22:46:51.815Z,16.91
2018-06-25T22:51:46.864Z,16.69
2018-06-25T22:56:41.535Z,16.77
2018-06-25T23:01:36.205Z,16.69
2018-06-25T23:06:30.906Z,16.72
2018-06-25T23:11:25.591Z,16.80
2018-06-25T23:16:20.211Z,16.26
2018-06-25T23:21:15.094Z,16.29
2018-06-25T23:26:09.674Z,16.50
2018-06-25T23:31:04.614Z,16.73
2018-06-25T23:35:59.238Z,16.52
2018-06-25T23:40:54.010Z,16.41
2018-06-25T23:45:48.695Z,16.43
2018-06-25T23:50:43.354Z,16.19
2018-06-25T23:55:38.027Z,16.16
